createdAt,value
2022-11-21T00:02:12.127Z,95.37
2022-11-21T00:04:40.377Z,94.80
2022-11-21T00:07:08.562Z,99.30
2022-11-21T00:09:36.798Z,97.90
2022-11-21T00:12:05.049Z,97.57
2022-11-21T00:14:34.611Z,97.67
2022-11-21T00:17:02.562Z,95.77
2022-11-21T00:19:31.919Z,96.90
2022-11-21T00:22:00.045Z,96.17
2022-11-21T00:24:28.305Z,97.77
2022-11-21T00:26:56.477Z,96.83
2022-11-21T00:29:24.536Z,98.50
2022-11-21T00:31:52.526Z,102.03
2022-11-21T00:34:20.522Z,98.53
2022-11-21T00:36:49.874Z,111.03
2022-11-21T00:39:18.006Z,105.30
2022-11-21T00:41:46.175Z,102.70
2022-11-21T00:44:14.203Z,100.40
2022-11-21T00:46:42.247Z,101.90
2022-11-21T00:49:10.239Z,102.17
2022-11-21T00:51:40.221Z,100.53
2022-11-21T00:54:10.130Z,103.50
2022-11-21T00:56:38.084Z,105.43
2022-11-21T00:59:06.092Z,107.30
2022-11-21T01:01:34.107Z,100.13
2022-11-21T01:04:02.123Z,107.60
2022-11-21T01:06:30.171Z,104.17
2022-11-21T01:08:58.206Z,100.73
2022-11-21T01:11:27.600Z,98.37
2022-11-21T01:13:55.666Z,104.73
2022-11-21T01:16:25.371Z,107.00
2022-11-21T01:18:53.657Z,108.13
2022-11-21T01:21:23.856Z,100.47
2022-11-21T01:23:52.479Z,103.67
2022-11-21T01:26:22.419Z,100.50
2022-11-21T01:28:52.522Z,97.40
2022-11-21T01:31:22.593Z,95.67
2022-11-21T01:33:51.325Z,97.60
2022-11-21T01:36:20.810Z,91.50
2022-11-21T01:38:51.577Z,94.60
2022-11-21T01:41:24.313Z,92.73
2022-11-21T01:43:53.725Z,88.73
2022-11-21T01:46:23.239Z,88.57
2022-11-21T01:48:56.394Z,86.20
2022-11-21T01:51:29.523Z,83.33
2022-11-21T01:54:02.507Z,88.90
2022-11-21T01:56:35.352Z,88.53
2022-11-21T01:59:05.979Z,88.13
2022-11-21T02:01:36.161Z,89.30
2022-11-21T02:04:05.716Z,90.23
2022-11-21T02:06:37.176Z,85.40
2022-11-21T02:09:06.956Z,88.33
2022-11-21T02:11:40.976Z,88.90
2022-11-21T02:14:10.635Z,94.27
2022-11-21T02:16:39.561Z,92.17
2022-11-21T02:19:09.807Z,91.60
2022-11-21T02:21:48.072Z,91.90
2022-11-21T02:24:22.116Z,90.83
2022-11-21T02:26:51.871Z,84.30
2022-11-21T02:29:20.076Z,83.63
2022-11-21T02:31:48.106Z,82.33
2022-11-21T02:34:16.151Z,77.03
2022-11-21T02:36:46.217Z,80.50
2022-11-21T02:39:20.746Z,79.10
2022-11-21T02:41:59.970Z,79.20
2022-11-21T02:44:35.005Z,76.00
2022-11-21T02:47:02.979Z,75.63
2022-11-21T02:49:38.977Z,76.77
2022-11-21T02:52:07.075Z,76.23
2022-11-21T02:54:35.055Z,76.47
2022-11-21T02:57:04.484Z,73.60
2022-11-21T02:59:32.476Z,77.53
2022-11-21T03:02:01.110Z,77.40
2022-11-21T03:04:29.515Z,76.70
2022-11-21T03:06:57.747Z,74.87
2022-11-21T03:09:25.779Z,76.13
2022-11-21T03:11:53.789Z,76.80
2022-11-21T03:14:23.123Z,77.63
2022-11-21T03:16:51.107Z,75.83
2022-11-21T03:19:19.092Z,77.20
2022-11-21T03:21:47.115Z,73.43
2022-11-21T03:24:15.108Z,72.87
2022-11-21T03:26:43.122Z,72.00
2022-11-21T03:29:11.130Z,75.13
2022-11-21T03:31:40.846Z,77.03
2022-11-21T03:34:08.971Z,79.63
2022-11-21T03:36:37.020Z,78.53
2022-11-21T03:39:05.331Z,78.37
2022-11-21T03:41:33.312Z,77.13
2022-11-21T03:44:02.732Z,75.83
2022-11-21T03:46:32.861Z,76.67
2022-11-21T03:49:02.217Z,72.17
2022-11-21T03:51:30.428Z,68.03
2022-11-21T03:53:58.542Z,67.53
2022-11-21T03:56:27.315Z,67.40
2022-11-21T03:58:55.735Z,65.53
2022-11-21T04:01:24.821Z,63.97
2022-11-21T04:03:53.176Z,63.17
2022-11-21T04:06:24.711Z,68.77
2022-11-21T04:08:52.855Z,70.30
2022-11-21T04:11:23.430Z,70.67
2022-11-21T04:13:51.477Z,72.17
2022-11-21T04:16:19.556Z,70.03
2022-11-21T04:18:47.536Z,73.43
2022-11-21T04:21:15.551Z,72.63
2022-11-21T04:23:44.933Z,75.57
2022-11-21T04:26:12.963Z,73.20
2022-11-21T04:28:40.941Z,72.00
2022-11-21T04:31:11.443Z,70.70
2022-11-21T04:33:40.233Z,66.63
2022-11-21T04:36:09.548Z,69.73
2022-11-21T04:38:38.205Z,70.27
2022-11-21T04:41:07.687Z,72.83
2022-11-21T04:43:35.704Z,66.97
2022-11-21T04:46:03.701Z,67.40
2022-11-21T04:48:32.619Z,65.40
2022-11-21T04:51:00.688Z,63.70
2022-11-21T04:53:28.692Z,63.37
2022-11-21T04:55:56.751Z,65.93
2022-11-21T04:58:26.144Z,61.53
2022-11-21T05:00:54.220Z,65.80
2022-11-21T05:03:22.377Z,63.00
2022-11-21T05:05:50.490Z,66.03
2022-11-21T05:08:18.457Z,67.57
2022-11-21T05:11:03.865Z,65.50
2022-11-21T05:13:33.250Z,63.50
2022-11-21T05:16:01.252Z,69.93
2022-11-21T05:18:29.561Z,74.60
2022-11-21T05:20:57.568Z,67.63
2022-11-21T05:23:25.554Z,73.00
2022-11-21T05:25:53.555Z,69.40
2022-11-21T05:28:21.540Z,67.50
2022-11-21T05:30:50.899Z,72.87
2022-11-21T05:33:18.976Z,70.13
2022-11-21T05:35:46.968Z,69.30
2022-11-21T05:38:14.949Z,69.60
2022-11-21T05:40:43.034Z,72.77
2022-11-21T05:43:30.019Z,72.63
2022-11-21T05:45:59.527Z,71.43
2022-11-21T05:48:27.514Z,70.97
2022-11-21T05:50:55.746Z,71.27
2022-11-21T05:53:23.763Z,74.17
2022-11-21T05:55:51.777Z,75.33
2022-11-21T05:58:19.891Z,78.67
2022-11-21T06:00:47.887Z,75.07
2022-11-21T06:03:28.228Z,74.53
2022-11-21T06:06:04.731Z,72.23
2022-11-21T06:08:34.796Z,69.83
2022-11-21T06:11:04.001Z,69.87
2022-11-21T06:13:33.725Z,64.57
2022-11-21T06:16:05.811Z,68.30
2022-11-21T06:18:36.618Z,64.77
2022-11-21T06:21:06.097Z,61.43
2022-11-21T06:23:34.369Z,59.90
2022-11-21T06:26:06.360Z,59.53
2022-11-21T06:28:35.784Z,60.07
2022-11-21T06:31:04.924Z,59.53
2022-11-21T06:33:33.070Z,57.40
2022-11-21T06:36:04.657Z,57.87
2022-11-21T06:38:32.792Z,59.73
2022-11-21T06:41:05.622Z,58.63
2022-11-21T06:43:33.736Z,62.63
2022-11-21T06:46:03.287Z,62.20
2022-11-21T06:48:31.922Z,61.57
2022-11-21T06:51:00.076Z,60.97
2022-11-21T06:53:29.404Z,58.63
2022-11-21T06:55:59.999Z,57.97
2022-11-21T06:58:29.538Z,56.33
2022-11-21T07:00:57.614Z,56.00
2022-11-21T07:03:25.956Z,56.43
2022-11-21T07:05:58.433Z,57.67
2022-11-21T07:08:27.376Z,58.27
2022-11-21T07:11:23.086Z,57.40
2022-11-21T07:13:45.094Z,54.77
2022-11-21T07:16:15.229Z,57.13
2022-11-21T07:18:44.492Z,57.67
2022-11-21T07:21:12.671Z,58.83
2022-11-21T07:23:40.858Z,58.97
2022-11-21T07:26:11.637Z,68.47
2022-11-21T07:28:39.722Z,69.90
2022-11-21T07:31:13.162Z,61.73
2022-11-21T07:33:43.219Z,57.17
2022-11-21T07:36:11.520Z,49.33
2022-11-21T07:38:42.456Z,46.83
2022-11-21T07:41:11.994Z,44.93
2022-11-21T07:43:39.990Z,43.77
2022-11-21T07:46:07.975Z,41.57
2022-11-21T07:48:35.989Z,41.13
2022-11-21T07:51:06.200Z,41.03
2022-11-21T07:53:34.267Z,41.53
2022-11-21T07:56:02.278Z,40.37
2022-11-21T07:58:31.819Z,40.83
2022-11-21T08:00:59.820Z,41.00
2022-11-21T08:03:27.798Z,39.47
2022-11-21T08:05:55.777Z,39.57
2022-11-21T08:08:23.916Z,38.80
2022-11-21T08:10:51.964Z,38.17
2022-11-21T08:13:20.038Z,39.33
2022-11-21T08:15:49.557Z,39.87
2022-11-21T08:18:20.004Z,40.73
2022-11-21T08:20:49.450Z,40.90
2022-11-21T08:23:17.681Z,41.40
2022-11-21T08:25:46.170Z,42.33
2022-11-21T08:28:15.933Z,42.27
2022-11-21T08:30:46.491Z,45.63
2022-11-21T08:33:16.365Z,44.80
2022-11-21T08:35:44.346Z,44.37
2022-11-21T08:38:12.424Z,44.03
2022-11-21T08:40:41.623Z,44.73
2022-11-21T08:43:11.319Z,46.27
2022-11-21T08:45:40.009Z,43.17
2022-11-21T08:48:12.194Z,44.83
2022-11-21T08:50:44.115Z,40.87
2022-11-21T08:53:12.149Z,41.37
2022-11-21T08:55:40.156Z,40.23
2022-11-21T08:58:08.148Z,39.63
2022-11-21T09:00:36.179Z,39.83
2022-11-21T09:03:05.793Z,38.67
2022-11-21T09:05:34.071Z,39.17
2022-11-21T09:08:03.442Z,36.97
2022-11-21T09:10:31.456Z,35.67
2022-11-21T09:13:00.090Z,33.80
2022-11-21T09:15:45.351Z,34.73
2022-11-21T09:18:13.615Z,35.87
2022-11-21T09:20:43.439Z,35.00
2022-11-21T09:23:14.747Z,35.00
2022-11-21T09:25:43.124Z,36.97
2022-11-21T09:28:13.387Z,35.47
2022-11-21T09:30:42.237Z,34.93
2022-11-21T09:33:13.313Z,35.40
2022-11-21T09:35:41.816Z,33.80
2022-11-21T09:38:10.351Z,36.47
2022-11-21T09:40:44.377Z,35.70
2022-11-21T09:43:36.063Z,36.63
2022-11-21T09:46:10.421Z,36.33
2022-11-21T09:48:49.621Z,34.70
2022-11-21T09:51:20.483Z,35.07
2022-11-21T09:53:58.147Z,36.07
2022-11-21T09:56:32.177Z,33.73
2022-11-21T09:59:13.765Z,35.67
2022-11-21T10:01:41.771Z,36.13
2022-11-21T10:04:10.036Z,36.43
2022-11-21T10:06:42.643Z,37.57
2022-11-21T10:09:23.668Z,35.27
2022-11-21T10:12:20.473Z,37.47
2022-11-21T10:15:04.867Z,38.30
2022-11-21T10:17:45.487Z,38.63
2022-11-21T10:20:25.826Z,38.07
2022-11-21T10:23:09.868Z,39.90
2022-11-21T10:25:39.070Z,38.97
2022-11-21T10:28:16.519Z,41.00
2022-11-21T10:30:46.947Z,40.47
2022-11-21T10:33:22.252Z,39.50
2022-11-21T10:35:54.581Z,40.60
2022-11-21T10:38:24.520Z,37.10
2022-11-21T10:40:56.112Z,40.27
2022-11-21T10:43:52.487Z,39.17
2022-11-21T10:46:20.537Z,38.60
2022-11-21T10:48:56.458Z,37.60
2022-11-21T10:51:36.739Z,38.37
2022-11-21T10:54:24.449Z,36.73
2022-11-21T10:56:55.504Z,35.77
2022-11-21T10:59:30.741Z,37.13
2022-11-21T11:02:01.039Z,38.10
2022-11-21T11:04:35.341Z,36.73
2022-11-21T11:07:22.849Z,38.90
2022-11-21T11:09:52.364Z,38.40
2022-11-21T11:12:48.874Z,37.70
2022-11-21T11:15:24.351Z,38.50
2022-11-21T11:17:58.005Z,38.93
2022-11-21T11:20:38.142Z,39.07
2022-11-21T11:23:26.587Z,40.23
2022-11-21T11:25:56.571Z,41.07
2022-11-21T11:28:25.318Z,44.77
2022-11-21T11:30:56.561Z,44.07
2022-11-21T11:33:36.415Z,44.20
2022-11-21T11:36:13.800Z,43.90
2022-11-21T11:38:48.467Z,45.50
2022-11-21T11:42:00.639Z,43.57
2022-11-21T11:44:55.492Z,43.63
2022-11-21T11:47:32.556Z,43.40
2022-11-21T11:50:12.995Z,43.40
2022-11-21T11:52:51.534Z,43.00
2022-11-21T11:55:24.990Z,42.93
2022-11-21T11:57:55.908Z,40.97
2022-11-21T12:00:41.568Z,41.77
2022-11-21T12:03:16.570Z,42.83
2022-11-21T12:05:54.289Z,42.13
2022-11-21T12:08:43.454Z,43.10
2022-11-21T12:11:43.909Z,43.07
2022-11-21T12:14:48.701Z,42.50
2022-11-21T12:17:21.070Z,40.50
2022-11-21T12:19:53.407Z,41.13
2022-11-21T12:22:21.782Z,39.70
2022-11-21T12:24:50.007Z,41.03
2022-11-21T12:27:29.392Z,41.23
2022-11-21T12:30:29.771Z,41.83
2022-11-21T12:33:08.788Z,38.47
2022-11-21T12:35:48.076Z,39.60
2022-11-21T12:38:32.012Z,40.47
2022-11-21T12:41:32.257Z,38.87
2022-11-21T12:44:12.099Z,39.10
2022-11-21T12:46:50.123Z,38.83
2022-11-21T12:49:49.109Z,38.50
2022-11-21T12:52:47.467Z,37.53
2022-11-21T12:55:40.127Z,39.83
2022-11-21T12:58:17.377Z,40.03
2022-11-21T13:00:56.310Z,42.73
2022-11-21T13:03:40.012Z,39.97
2022-11-21T13:06:16.427Z,41.13
2022-11-21T13:08:48.538Z,39.87
2022-11-21T13:11:49.399Z,40.00
2022-11-21T13:14:24.312Z,40.43
2022-11-21T13:17:03.668Z,37.83
2022-11-21T13:19:43.385Z,40.57
2022-11-21T13:22:43.738Z,41.97
2022-11-21T13:25:14.686Z,44.20
2022-11-21T13:27:43.484Z,42.70
2022-11-21T13:30:23.793Z,44.23
2022-11-21T13:32:53.377Z,42.23
2022-11-21T13:36:04.001Z,41.70
2022-11-21T13:38:32.419Z,42.67
2022-11-21T13:41:22.321Z,43.13
2022-11-21T13:43:50.368Z,42.60
2022-11-21T13:46:58.975Z,42.33
2022-11-21T13:49:32.681Z,44.07
2022-11-21T13:52:05.444Z,42.07
2022-11-21T13:55:05.909Z,43.50
2022-11-21T13:57:59.341Z,43.47
2022-11-21T14:00:39.226Z,41.93
2022-11-21T14:03:42.480Z,44.73
2022-11-21T14:06:33.201Z,43.83
2022-11-21T14:09:27.262Z,43.07
2022-11-21T14:11:59.338Z,43.80
2022-11-21T14:14:36.299Z,45.03
2022-11-21T14:17:33.934Z,45.67
2022-11-21T14:20:09.064Z,47.07
2022-11-21T14:22:47.914Z,49.37
2022-11-21T14:25:19.457Z,50.27
2022-11-21T14:27:49.955Z,47.77
2022-11-21T14:30:32.570Z,47.73
2022-11-21T14:33:18.747Z,46.60
2022-11-21T14:35:49.613Z,44.67
2022-11-21T14:38:17.955Z,47.70
2022-11-21T14:40:45.955Z,50.87
2022-11-21T14:43:31.130Z,48.30
2022-11-21T14:46:00.857Z,48.77
2022-11-21T14:48:30.624Z,48.73
2022-11-21T14:51:01.888Z,48.00
2022-11-21T14:53:30.138Z,45.27
2022-11-21T14:56:01.432Z,47.57
2022-11-21T14:58:29.856Z,46.37
2022-11-21T15:01:07.683Z,46.47
2022-11-21T15:03:36.187Z,46.03
2022-11-21T15:06:08.253Z,48.33
2022-11-21T15:11:33.427Z,51.00
2022-11-21T15:14:16.929Z,56.37
2022-11-21T15:16:49.042Z,55.00
2022-11-21T15:19:24.403Z,56.00
2022-11-21T15:21:54.111Z,55.07
2022-11-21T15:24:31.290Z,54.77
2022-11-21T15:26:59.911Z,57.27
2022-11-21T15:29:30.620Z,53.77
2022-11-21T15:32:15.853Z,54.53
2022-11-21T15:35:01.497Z,52.57
2022-11-21T15:37:29.602Z,52.67
2022-11-21T15:39:59.131Z,51.10
2022-11-21T15:42:37.192Z,50.73
2022-11-21T15:45:23.819Z,52.90
2022-11-21T15:47:53.259Z,52.90
2022-11-21T15:50:27.744Z,52.10
2022-11-21T15:52:55.889Z,55.87
2022-11-21T15:55:28.209Z,55.50
2022-11-21T15:57:56.280Z,53.30
2022-11-21T16:00:24.570Z,55.20
2022-11-21T16:02:53.914Z,54.73
2022-11-21T16:05:21.933Z,57.73
2022-11-21T16:07:50.013Z,54.90
2022-11-21T16:10:27.580Z,54.17
2022-11-21T16:12:56.318Z,54.17
2022-11-21T16:15:24.707Z,54.57
2022-11-21T16:17:54.288Z,53.80
2022-11-21T16:20:22.404Z,51.43
2022-11-21T16:22:50.464Z,56.03
2022-11-21T16:25:21.513Z,54.87
2022-11-21T16:27:49.617Z,57.33
2022-11-21T16:30:17.754Z,58.53
2022-11-21T16:32:46.944Z,56.27
2022-11-21T16:35:16.660Z,55.80
2022-11-21T16:37:44.644Z,54.93
2022-11-21T16:40:14.270Z,58.17
2022-11-21T16:42:42.637Z,57.93
2022-11-21T16:45:12.655Z,56.53
2022-11-21T16:47:44.395Z,61.60
2022-11-21T16:50:18.784Z,62.20
2022-11-21T16:52:46.750Z,88.87
2022-11-21T16:55:17.378Z,67.10
2022-11-21T16:57:45.385Z,60.87
2022-11-21T17:00:13.967Z,62.87
2022-11-21T17:02:44.865Z,56.97
2022-11-21T17:05:12.921Z,55.27
2022-11-21T17:07:42.465Z,54.70
2022-11-21T17:10:11.089Z,54.90
2022-11-21T17:12:39.608Z,56.07
2022-11-21T17:15:10.479Z,52.40
2022-11-21T17:17:38.921Z,50.80
2022-11-21T17:20:11.346Z,51.23
2022-11-21T17:22:39.466Z,53.53
2022-11-21T17:25:09.939Z,55.40
2022-11-21T17:27:38.732Z,55.43
2022-11-21T17:30:08.348Z,54.23
2022-11-21T17:32:36.820Z,53.13
2022-11-21T17:35:05.519Z,48.63
2022-11-21T17:37:33.586Z,49.07
2022-11-21T17:40:01.611Z,51.73
2022-11-21T17:42:31.014Z,55.07
2022-11-21T17:44:59.020Z,61.27
2022-11-21T17:47:27.066Z,64.00
2022-11-21T17:49:55.444Z,65.20
2022-11-21T17:52:23.468Z,61.47
2022-11-21T17:54:51.479Z,65.97
2022-11-21T17:57:19.481Z,63.10
2022-11-21T17:59:48.832Z,60.17
2022-11-21T18:02:18.080Z,61.20
2022-11-21T18:04:47.157Z,54.27
2022-11-21T18:07:15.252Z,55.37
2022-11-21T18:09:43.266Z,52.80
2022-11-21T18:12:11.315Z,50.40
2022-11-21T18:14:39.351Z,47.30
2022-11-21T18:17:08.708Z,46.67
2022-11-21T18:19:36.732Z,45.67
2022-11-21T18:22:04.743Z,48.10
2022-11-21T18:24:33.021Z,46.00
2022-11-21T18:27:01.056Z,53.40
2022-11-21T18:29:36.338Z,56.77
2022-11-21T18:32:05.293Z,53.67
2022-11-21T18:34:35.003Z,50.80
2022-11-21T18:37:03.012Z,47.77
2022-11-21T18:39:31.207Z,51.03
2022-11-21T18:41:59.272Z,52.30
2022-11-21T18:44:27.256Z,53.13
2022-11-21T18:46:55.260Z,52.30
2022-11-21T18:49:23.571Z,50.73
2022-11-21T18:51:52.905Z,53.17
2022-11-21T18:54:20.958Z,52.33
2022-11-21T18:56:51.438Z,50.17
2022-11-21T18:59:19.480Z,50.27
2022-11-21T19:01:47.537Z,48.57
2022-11-21T19:04:15.786Z,50.77
2022-11-21T19:06:43.776Z,50.40
2022-11-21T19:09:14.807Z,49.10
2022-11-21T19:11:42.815Z,52.53
2022-11-21T19:14:10.843Z,51.70
2022-11-21T19:16:38.897Z,50.17
2022-11-21T19:21:55.688Z,48.37
2022-11-21T19:24:25.139Z,49.47
2022-11-21T19:26:53.167Z,50.20
2022-11-21T19:29:21.170Z,51.30
2022-11-21T19:31:49.162Z,52.40
2022-11-21T19:34:17.874Z,53.03
2022-11-21T19:36:46.559Z,54.53
2022-11-21T19:39:14.745Z,51.20
2022-11-21T19:41:44.192Z,53.97
2022-11-21T19:44:12.482Z,59.80
2022-11-21T19:46:42.176Z,54.97
2022-11-21T19:49:12.494Z,54.17
2022-11-21T19:51:43.280Z,55.27
2022-11-21T19:54:13.175Z,55.37
2022-11-21T19:56:45.674Z,56.23
2022-11-21T19:59:14.910Z,66.03
2022-11-21T20:01:44.824Z,72.30
2022-11-21T20:04:15.054Z,84.57
2022-11-21T20:06:45.910Z,105.10
2022-11-21T20:09:15.659Z,95.43
2022-11-21T20:11:47.054Z,94.80
2022-11-21T20:14:21.551Z,85.67
2022-11-21T20:16:52.749Z,75.00
2022-11-21T20:19:22.694Z,67.77
2022-11-21T20:21:53.771Z,70.63
2022-11-21T20:24:23.087Z,62.83
2022-11-21T20:26:53.638Z,57.80
2022-11-21T20:29:21.742Z,55.13
2022-11-21T20:31:49.980Z,55.87
2022-11-21T20:34:17.995Z,53.10
2022-11-21T20:36:46.585Z,50.53
2022-11-21T20:39:15.867Z,49.37
2022-11-21T20:41:45.259Z,51.80
2022-11-21T20:47:05.421Z,52.47
2022-11-21T20:49:34.433Z,52.30
2022-11-21T20:53:43.800Z,57.13
2022-11-21T20:54:50.725Z,64.37
2022-11-21T20:57:18.756Z,61.40
2022-11-21T20:59:48.203Z,61.97
2022-11-21T21:02:16.219Z,61.27
2022-11-21T21:04:44.492Z,59.33
2022-11-21T21:07:12.702Z,61.33
2022-11-21T21:09:42.805Z,66.97
2022-11-21T21:12:10.822Z,62.20
2022-11-21T21:14:39.033Z,62.00
2022-11-21T21:17:08.407Z,62.33
2022-11-21T21:19:36.420Z,65.73
2022-11-21T21:22:05.104Z,63.60
2022-11-21T21:24:33.200Z,66.33
2022-11-21T21:27:01.170Z,70.33
2022-11-21T21:29:29.475Z,69.93
2022-11-21T21:31:57.843Z,72.50
2022-11-21T21:34:27.424Z,74.00
2022-11-21T21:36:55.764Z,78.63
2022-11-21T21:39:23.761Z,81.23
2022-11-21T21:41:51.771Z,83.03
2022-11-21T21:44:19.793Z,85.73
2022-11-21T21:46:47.945Z,87.10
2022-11-21T21:49:15.954Z,86.13
2022-11-21T21:51:45.327Z,91.43
2022-11-21T21:54:18.500Z,95.00
2022-11-21T21:56:47.099Z,96.23
2022-11-21T21:59:17.872Z,118.23
2022-11-21T22:01:46.514Z,101.20
2022-11-21T22:04:14.602Z,98.93
2022-11-21T22:06:42.608Z,96.67
2022-11-21T22:09:12.059Z,96.33
2022-11-21T22:11:40.294Z,94.37
2022-11-21T22:14:11.184Z,94.63
2022-11-21T22:16:42.007Z,103.33
2022-11-21T22:19:10.402Z,101.03
2022-11-21T22:21:39.660Z,93.80
2022-11-21T22:24:30.803Z,94.00
2022-11-21T22:26:58.938Z,86.13
2022-11-21T22:29:27.080Z,75.07
2022-11-21T22:31:55.124Z,62.30
2022-11-21T22:34:23.447Z,55.13
2022-11-21T22:36:51.467Z,58.13
2022-11-21T22:39:21.007Z,53.00
2022-11-21T22:41:48.959Z,52.57
2022-11-21T22:44:17.476Z,53.30
2022-11-21T22:46:45.483Z,58.53
2022-11-21T22:49:14.293Z,54.27
2022-11-21T22:51:42.250Z,60.87
2022-11-21T22:54:12.923Z,58.20
2022-11-21T22:56:42.711Z,58.20
2022-11-21T22:59:13.517Z,60.43
2022-11-21T23:01:41.573Z,64.70
2022-11-21T23:04:13.260Z,65.27
2022-11-21T23:06:44.266Z,67.73
2022-11-21T23:09:12.400Z,72.00
2022-11-21T23:11:41.133Z,66.87
2022-11-21T23:14:10.681Z,68.00
2022-11-21T23:16:39.215Z,64.23
2022-11-21T23:19:07.348Z,65.70
2022-11-21T23:21:35.346Z,65.00
2022-11-21T23:24:03.667Z,64.37
2022-11-21T23:26:31.608Z,65.97
2022-11-21T23:29:05.052Z,61.33
2022-11-21T23:31:37.501Z,60.10
2022-11-21T23:34:05.958Z,56.73
2022-11-21T23:36:34.025Z,57.33
2022-11-21T23:39:02.495Z,57.57
2022-11-21T23:41:30.825Z,54.50
2022-11-21T23:43:59.999Z,54.40
2022-11-21T23:46:28.523Z,53.93
2022-11-21T23:48:57.956Z,52.33
2022-11-21T23:51:26.016Z,53.87
2022-11-21T23:53:54.115Z,57.00
2022-11-21T23:56:22.132Z,60.50
2022-11-21T23:58:50.414Z,60.93
